sensor_id;sensor_type;location;lat;lon;timestamp;pressure;altitude;pressure_sealevel;temperature;humidity
61908;BME280;47864;52.526;19.672;2023-02-28T00:01:13;102452.91;;;-3.68;100.00
61908;BME280;47864;52.526;19.672;2023-02-28T00:03:15;102446.09;;;-3.77;100.00
61908;BME280;47864;52.526;19.672;2023-02-28T00:05:19;102458.19;;;-3.76;100.00
61908;BME280;47864;52.526;19.672;2023-02-28T00:07:21;102453.84;;;-3.72;100.00
61908;BME280;47864;52.526;19.672;2023-02-28T00:09:22;102453.06;;;-3.80;100.00
61908;BME280;47864;52.526;19.672;2023-02-28T00:11:24;102457.38;;;-3.81;100.00
61908;BME280;47864;52.526;19.672;2023-02-28T00:13:25;102460.84;;;-3.80;100.00
61908;BME280;47864;52.526;19.672;2023-02-28T00:15:27;102459.94;;;-3.78;100.00
61908;BME280;47864;52.526;19.672;2023-02-28T00:17:29;102459.13;;;-3.83;100.00
61908;BME280;47864;52.526;19.672;2023-02-28T00:19:30;102466.03;;;-3.80;100.00
61908;BME280;47864;52.526;19.672;2023-02-28T00:21:31;102466.91;;;-3.85;100.00
61908;BME280;47864;52.526;19.672;2023-02-28T00:23:33;102461.72;;;-3.85;100.00
61908;BME280;47864;52.526;19.672;2023-02-28T00:25:35;102460.84;;;-3.85;100.00
61908;BME280;47864;52.526;19.672;2023-02-28T00:27:38;102465.16;;;-3.83;100.00
61908;BME280;47864;52.526;19.672;2023-02-28T00:29:40;102433.38;;;-4.03;100.00
61908;BME280;47864;52.526;19.672;2023-02-28T00:31:41;102446.31;;;-4.00;100.00
61908;BME280;47864;52.526;19.672;2023-02-28T00:33:43;102468.69;;;-3.88;100.00
61908;BME280;47864;52.526;19.672;2023-02-28T00:35:46;102469.50;;;-3.86;100.00
61908;BME280;47864;52.526;19.672;2023-02-28T00:37:49;102476.41;;;-3.84;100.00
61908;BME280;47864;52.526;19.672;2023-02-28T00:39:51;102474.69;;;-3.86;100.00
61908;BME280;47864;52.526;19.672;2023-02-28T00:41:52;102455.78;;;-3.96;100.00
61908;BME280;47864;52.526;19.672;2023-02-28T00:43:54;102472.97;;;-3.86;100.00
61908;BME280;47864;52.526;19.672;2023-02-28T00:45:55;102472.94;;;-3.84;100.00
61908;BME280;47864;52.526;19.672;2023-02-28T00:47:57;102475.44;;;-3.73;100.00
61908;BME280;47864;52.526;19.672;2023-02-28T00:49:59;102477.19;;;-3.72;100.00
61908;BME280;47864;52.526;19.672;2023-02-28T00:52:01;102468.59;;;-3.79;100.00
61908;BME280;47864;52.526;19.672;2023-02-28T00:54:03;102475.63;;;-3.93;100.00
61908;BME280;47864;52.526;19.672;2023-02-28T00:56:04;102469.63;;;-3.98;100.00
61908;BME280;47864;52.526;19.672;2023-02-28T00:58:06;102461.06;;;-4.11;100.00
61908;BME280;47864;52.526;19.672;2023-02-28T01:00:08;102469.63;;;-4.01;100.00
61908;BME280;47864;52.526;19.672;2023-02-28T01:02:10;102453.34;;;-4.12;100.00
61908;BME280;47864;52.526;19.672;2023-02-28T01:04:12;102473.97;;;-4.03;100.00
61908;BME280;47864;52.526;19.672;2023-02-28T01:06:14;102471.50;;;-4.18;100.00
61908;BME280;47864;52.526;19.672;2023-02-28T01:08:15;102468.09;;;-4.25;100.00
61908;BME280;47864;52.526;19.672;2023-02-28T01:10:17;102470.66;;;-4.20;100.00
61908;BME280;47864;52.526;19.672;2023-02-28T01:12:18;102464.59;;;-4.16;100.00
61908;BME280;47864;52.526;19.672;2023-02-28T01:14:20;102447.41;;;-4.30;100.00
61908;BME280;47864;52.526;19.672;2023-02-28T01:16:22;102455.09;;;-4.19;100.00
61908;BME280;47864;52.526;19.672;2023-02-28T01:18:24;102462.84;;;-4.16;100.00
61908;BME280;47864;52.526;19.672;2023-02-28T01:20:25;102477.47;;;-4.06;100.00
61908;BME280;47864;52.526;19.672;2023-02-28T01:22:27;102467.19;;;-4.18;100.00
61908;BME280;47864;52.526;19.672;2023-02-28T01:24:28;102468.91;;;-4.15;100.00
61908;BME280;47864;52.526;19.672;2023-02-28T01:26:30;102473.13;;;-4.04;100.00
61908;BME280;47864;52.526;19.672;2023-02-28T01:28:32;102465.38;;;-4.05;100.00
61908;BME280;47864;52.526;19.672;2023-02-28T01:30:34;102470.56;;;-4.11;100.00
61908;BME280;47864;52.526;19.672;2023-02-28T01:32:36;102476.66;;;-4.15;100.00
61908;BME280;47864;52.526;19.672;2023-02-28T01:34:38;102454.31;;;-4.29;100.00
61908;BME280;47864;52.526;19.672;2023-02-28T01:36:39;102478.41;;;-4.16;100.00
61908;BME280;47864;52.526;19.672;2023-02-28T01:38:41;102476.69;;;-4.18;100.00
61908;BME280;47864;52.526;19.672;2023-02-28T01:40:43;102456.91;;;-4.29;100.00
61908;BME280;47864;52.526;19.672;2023-02-28T01:42:44;102484.44;;;-4.14;100.00
61908;BME280;47864;52.526;19.672;2023-02-28T01:47:14;102464.75;;;-4.38;100.00
61908;BME280;47864;52.526;19.672;2023-02-28T01:49:16;102479.31;;;-4.22;100.00
61908;BME280;47864;52.526;19.672;2023-02-28T01:51:22;102481.97;;;-4.29;100.00
61908;BME280;47864;52.526;19.672;2023-02-28T01:53:46;102468.16;;;-4.36;100.00
61908;BME280;47864;52.526;19.672;2023-02-28T01:55:51;102473.38;;;-4.40;100.00
61908;BME280;47864;52.526;19.672;2023-02-28T01:57:56;102475.97;;;-4.42;100.00
61908;BME280;47864;52.526;19.672;2023-02-28T02:00:00;102472.53;;;-4.44;100.00
61908;BME280;47864;52.526;19.672;2023-02-28T02:02:03;102481.06;;;-4.28;100.00
61908;BME280;47864;52.526;19.672;2023-02-28T02:04:05;102470.69;;;-4.27;100.00
61908;BME280;47864;52.526;19.672;2023-02-28T02:06:06;102452.78;;;-4.54;100.00
61908;BME280;47864;52.526;19.672;2023-02-28T02:08:11;102467.34;;;-4.44;100.00
61908;BME280;47864;52.526;19.672;2023-02-28T02:10:16;102474.25;;;-4.40;100.00
61908;BME280;47864;52.526;19.672;2023-02-28T02:12:32;102470.78;;;-4.37;100.00
61908;BME280;47864;52.526;19.672;2023-02-28T02:14:47;102448.41;;;-4.49;100.00
61908;BME280;47864;52.526;19.672;2023-02-28T02:17:05;102451.91;;;-4.56;100.00
61908;BME280;47864;52.526;19.672;2023-02-28T02:24:16;102474.34;;;-4.56;100.00
61908;BME280;47864;52.526;19.672;2023-02-28T02:29:03;102482.13;;;-4.53;100.00
61908;BME280;47864;52.526;19.672;2023-02-28T02:36:12;102465.72;;;-4.57;100.00
61908;BME280;47864;52.526;19.672;2023-02-28T02:40:26;102478.72;;;-4.62;100.00
61908;BME280;47864;52.526;19.672;2023-02-28T02:42:51;102478.66;;;-4.55;100.00
61908;BME280;47864;52.526;19.672;2023-02-28T02:44:59;102479.50;;;-4.50;100.00
61908;BME280;47864;52.526;19.672;2023-02-28T02:47:11;102472.63;;;-4.57;100.00
61908;BME280;47864;52.526;19.672;2023-02-28T02:49:28;102431.44;;;-5.02;100.00
61908;BME280;47864;52.526;19.672;2023-02-28T02:51:32;102454.59;;;-4.74;100.00
61908;BME280;47864;52.526;19.672;2023-02-28T02:53:37;102461.47;;;-4.67;100.00
61908;BME280;47864;52.526;19.672;2023-02-28T02:55:45;102476.16;;;-4.71;100.00
61908;BME280;47864;52.526;19.672;2023-02-28T02:57:52;102481.31;;;-4.66;100.00
61908;BME280;47864;52.526;19.672;2023-02-28T02:59:56;102477.81;;;-4.53;100.00
61908;BME280;47864;52.526;19.672;2023-02-28T03:01:59;102482.97;;;-4.53;100.00
61908;BME280;47864;52.526;19.672;2023-02-28T03:04:09;102453.88;;;-4.96;100.00
61908;BME280;47864;52.526;19.672;2023-02-28T03:06:11;102465.94;;;-4.96;100.00
61908;BME280;47864;52.526;19.672;2023-02-28T03:08:14;102454.69;;;-4.94;100.00
61908;BME280;47864;52.526;19.672;2023-02-28T03:12:41;102478.81;;;-4.78;100.00
61908;BME280;47864;52.526;19.672;2023-02-28T03:15:11;102477.91;;;-4.73;100.00
61908;BME280;47864;52.526;19.672;2023-02-28T03:20:07;102477.03;;;-4.76;100.00
61908;BME280;47864;52.526;19.672;2023-02-28T03:27:27;102486.59;;;-4.92;100.00
61908;BME280;47864;52.526;19.672;2023-02-28T03:29:43;102481.44;;;-4.86;100.00
61908;BME280;47864;52.526;19.672;2023-02-28T03:31:51;102480.53;;;-4.85;100.00
61908;BME280;47864;52.526;19.672;2023-02-28T03:34:03;102486.59;;;-4.87;100.00
61908;BME280;47864;52.526;19.672;2023-02-28T03:36:29;102482.38;;;-5.16;100.00
61908;BME280;47864;52.526;19.672;2023-02-28T03:38:42;102461.72;;;-5.23;100.00
61908;BME280;47864;52.526;19.672;2023-02-28T03:40:49;102496.09;;;-4.94;100.00
61908;BME280;47864;52.526;19.672;2023-02-28T03:42:56;102487.50;;;-4.96;100.00
61908;BME280;47864;52.526;19.672;2023-02-28T03:45:04;102488.38;;;-4.95;100.00
61908;BME280;47864;52.526;19.672;2023-02-28T03:47:10;102490.91;;;-4.94;100.00
61908;BME280;47864;52.526;19.672;2023-02-28T03:49:17;102496.97;;;-4.93;100.00
61908;BME280;47864;52.526;19.672;2023-02-28T03:51:22;102490.94;;;-4.95;100.00
61908;BME280;47864;52.526;19.672;2023-02-28T03:53:30;102470.25;;;-4.99;100.00
61908;BME280;47864;52.526;19.672;2023-02-28T03:55:39;102499.53;;;-4.93;100.00
61908;BME280;47864;52.526;19.672;2023-02-28T03:57:51;102473.75;;;-5.13;100.00
61908;BME280;47864;52.526;19.672;2023-02-28T03:59:59;102480.66;;;-5.12;100.00
61908;BME280;47864;52.526;19.672;2023-02-28T04:02:01;102498.69;;;-4.94;100.00
61908;BME280;47864;52.526;19.672;2023-02-28T04:04:03;102473.75;;;-5.18;100.00
61908;BME280;47864;52.526;19.672;2023-02-28T04:06:15;102447.06;;;-5.23;100.00
61908;BME280;47864;52.526;19.672;2023-02-28T04:08:18;102476.31;;;-5.10;100.00
61908;BME280;47864;52.526;19.672;2023-02-28T04:10:19;102471.06;;;-4.90;100.00
61908;BME280;47864;52.526;19.672;2023-02-28T04:12:21;102504.69;;;-4.83;100.00
61908;BME280;47864;52.526;19.672;2023-02-28T04:14:23;102501.22;;;-4.82;100.00
61908;BME280;47864;52.526;19.672;2023-02-28T04:16:25;102486.63;;;-4.96;100.00
61908;BME280;47864;52.526;19.672;2023-02-28T04:18:35;102514.22;;;-4.94;100.00
61908;BME280;47864;52.526;19.672;2023-02-28T04:20:37;102490.09;;;-5.01;100.00
61908;BME280;47864;52.526;19.672;2023-02-28T04:22:39;102464.28;;;-5.13;100.00
61908;BME280;47864;52.526;19.672;2023-02-28T04:24:40;102504.69;;;-4.78;100.00
61908;BME280;47864;52.526;19.672;2023-02-28T04:26:46;102510.66;;;-4.66;100.00
61908;BME280;47864;52.526;19.672;2023-02-28T04:28:48;102509.78;;;-4.69;100.00
61908;BME280;47864;52.526;19.672;2023-02-28T04:30:57;102491.78;;;-4.90;100.00
61908;BME280;47864;52.526;19.672;2023-02-28T04:33:00;102513.31;;;-4.85;100.00
61908;BME280;47864;52.526;19.672;2023-02-28T04:35:02;102484.13;;;-5.16;100.00
61908;BME280;47864;52.526;19.672;2023-02-28T04:37:04;102515.97;;;-4.96;100.00
61908;BME280;47864;52.526;19.672;2023-02-28T04:39:14;102509.91;;;-4.90;100.00
61908;BME280;47864;52.526;19.672;2023-02-28T04:41:16;102514.22;;;-4.92;100.00
61908;BME280;47864;52.526;19.672;2023-02-28T04:43:18;102508.19;;;-4.99;100.00
61908;BME280;47864;52.526;19.672;2023-02-28T04:45:19;102516.78;;;-4.86;100.00
61908;BME280;47864;52.526;19.672;2023-02-28T04:47:21;102512.47;;;-4.89;100.00
61908;BME280;47864;52.526;19.672;2023-02-28T04:49:22;102504.69;;;-4.84;100.00
61908;BME280;47864;52.526;19.672;2023-02-28T04:51:24;102497.84;;;-4.99;100.00
61908;BME280;47864;52.526;19.672;2023-02-28T04:53:25;102514.25;;;-5.00;100.00
61908;BME280;47864;52.526;19.672;2023-02-28T04:55:27;102513.31;;;-4.81;100.00
61908;BME280;47864;52.526;19.672;2023-02-28T04:57:28;102516.75;;;-4.82;100.00
61908;BME280;47864;52.526;19.672;2023-02-28T04:59:29;102507.31;;;-4.87;100.00
61908;BME280;47864;52.526;19.672;2023-02-28T05:01:33;102522.75;;;-4.72;100.00
61908;BME280;47864;52.526;19.672;2023-02-28T05:03:34;102521.06;;;-4.78;100.00
61908;BME280;47864;52.526;19.672;2023-02-28T05:05:36;102527.13;;;-4.85;100.00
61908;BME280;47864;52.526;19.672;2023-02-28T05:07:37;102524.56;;;-4.89;100.00
61908;BME280;47864;52.526;19.672;2023-02-28T05:09:39;102531.47;;;-4.91;100.00
61908;BME280;47864;52.526;19.672;2023-02-28T05:11:40;102513.41;;;-5.05;100.00
61908;BME280;47864;52.526;19.672;2023-02-28T05:13:42;102529.75;;;-4.97;100.00
61908;BME280;47864;52.526;19.672;2023-02-28T05:15:43;102528.00;;;-4.87;100.00
61908;BME280;47864;52.526;19.672;2023-02-28T05:17:45;102508.19;;;-4.96;100.00
61908;BME280;47864;52.526;19.672;2023-02-28T05:19:46;102538.31;;;-4.84;100.00
61908;BME280;47864;52.526;19.672;2023-02-28T05:21:51;102522.88;;;-5.00;100.00
61908;BME280;47864;52.526;19.672;2023-02-28T05:23:54;102540.09;;;-4.86;100.00
61908;BME280;47864;52.526;19.672;2023-02-28T05:25:56;102529.72;;;-4.89;100.00
61908;BME280;47864;52.526;19.672;2023-02-28T05:27:57;102540.09;;;-4.86;100.00
61908;BME280;47864;52.526;19.672;2023-02-28T05:29:59;102537.53;;;-4.97;100.00
61908;BME280;47864;52.526;19.672;2023-02-28T05:32:00;102541.84;;;-5.02;100.00
61908;BME280;47864;52.526;19.672;2023-02-28T05:34:02;102515.16;;;-5.12;100.00
61908;BME280;47864;52.526;19.672;2023-02-28T05:36:04;102545.28;;;-5.02;100.00
61908;BME280;47864;52.526;19.672;2023-02-28T05:38:06;102546.97;;;-4.91;100.00
61908;BME280;47864;52.526;19.672;2023-02-28T05:40:08;102549.53;;;-4.79;100.00
61908;BME280;47864;52.526;19.672;2023-02-28T05:42:10;102554.66;;;-4.69;100.00
61908;BME280;47864;52.526;19.672;2023-02-28T05:44:11;102552.09;;;-4.76;100.00
61908;BME280;47864;52.526;19.672;2023-02-28T05:46:13;102556.44;;;-4.84;100.00
61908;BME280;47864;52.526;19.672;2023-02-28T05:48:15;102562.47;;;-4.84;100.00
61908;BME280;47864;52.526;19.672;2023-02-28T05:50:16;102564.22;;;-4.78;100.00
61908;BME280;47864;52.526;19.672;2023-02-28T05:52:18;102565.06;;;-4.81;100.00
61908;BME280;47864;52.526;19.672;2023-02-28T05:54:19;102564.22;;;-4.81;100.00
61908;BME280;47864;52.526;19.672;2023-02-28T05:56:21;102565.94;;;-4.82;100.00
61908;BME280;47864;52.526;19.672;2023-02-28T05:58:22;102543.53;;;-4.90;100.00
61908;BME280;47864;52.526;19.672;2023-02-28T06:00:24;102565.81;;;-4.51;100.00
61908;BME280;47864;52.526;19.672;2023-02-28T06:02:25;102562.94;;;-4.03;100.00
61908;BME280;47864;52.526;19.672;2023-02-28T06:04:27;102567.78;;;-3.57;100.00
61908;BME280;47864;52.526;19.672;2023-02-28T06:06:32;102564.19;;;-3.39;100.00
61908;BME280;47864;52.526;19.672;2023-02-28T06:08:37;102572.59;;;-3.15;100.00
61908;BME280;47864;52.526;19.672;2023-02-28T06:10:38;102573.03;;;-2.78;100.00
61908;BME280;47864;52.526;19.672;2023-02-28T06:12:40;102558.97;;;-2.57;100.00
61908;BME280;47864;52.526;19.672;2023-02-28T06:14:41;102575.19;;;-2.40;100.00
61908;BME280;47864;52.526;19.672;2023-02-28T06:16:43;102571.50;;;-2.23;100.00
61908;BME280;47864;52.526;19.672;2023-02-28T06:18:45;102561.13;;;-2.25;100.00
61908;BME280;47864;52.526;19.672;2023-02-28T06:20:53;102573.06;;;-2.13;100.00
61908;BME280;47864;52.526;19.672;2023-02-28T06:22:58;102570.38;;;-2.06;100.00
61908;BME280;47864;52.526;19.672;2023-02-28T06:24:59;102557.09;;;-1.89;100.00
61908;BME280;47864;52.526;19.672;2023-02-28T06:27:01;102572.75;;;-1.38;100.00
61908;BME280;47864;52.526;19.672;2023-02-28T06:29:02;102570.56;;;-1.12;100.00
61908;BME280;47864;52.526;19.672;2023-02-28T06:31:12;102564.91;;;-0.89;100.00
61908;BME280;47864;52.526;19.672;2023-02-28T06:33:14;102570.03;;;-0.83;100.00
61908;BME280;47864;52.526;19.672;2023-02-28T06:35:15;102569.50;;;-1.00;100.00
61908;BME280;47864;52.526;19.672;2023-02-28T06:37:18;102569.31;;;-1.39;100.00
61908;BME280;47864;52.526;19.672;2023-02-28T06:39:19;102568.72;;;-1.07;100.00
61908;BME280;47864;52.526;19.672;2023-02-28T06:41:25;102572.44;;;-0.74;100.00
61908;BME280;47864;52.526;19.672;2023-02-28T06:43:29;102575.56;;;-0.57;100.00
61908;BME280;47864;52.526;19.672;2023-02-28T06:45:31;102571.72;;;-0.39;100.00
61908;BME280;47864;52.526;19.672;2023-02-28T06:47:33;102562.75;;;-0.26;100.00
61908;BME280;47864;52.526;19.672;2023-02-28T06:49:35;102567.06;;;0.14;100.00
61908;BME280;47864;52.526;19.672;2023-02-28T06:51:39;102546.34;;;0.42;100.00
61908;BME280;47864;52.526;19.672;2023-02-28T06:53:41;102532.75;;;0.64;100.00
61908;BME280;47864;52.526;19.672;2023-02-28T06:55:43;102561.91;;;1.12;100.00
61908;BME280;47864;52.526;19.672;2023-02-28T06:57:44;102560.78;;;1.52;98.99
61908;BME280;47864;52.526;19.672;2023-02-28T06:59:46;102558.00;;;1.57;96.96
61908;BME280;47864;52.526;19.672;2023-02-28T07:01:47;102550.03;;;1.61;96.95
61908;BME280;47864;52.526;19.672;2023-02-28T07:03:49;102557.47;;;2.03;94.63
61908;BME280;47864;52.526;19.672;2023-02-28T07:05:51;102552.03;;;2.09;95.12
61908;BME280;47864;52.526;19.672;2023-02-28T07:07:53;102541.44;;;2.40;94.66
61908;BME280;47864;52.526;19.672;2023-02-28T07:09:54;102544.34;;;2.82;93.48
61908;BME280;47864;52.526;19.672;2023-02-28T07:11:55;102548.88;;;3.03;92.73
61908;BME280;47864;52.526;19.672;2023-02-28T07:13:57;102549.63;;;3.05;90.66
61908;BME280;47864;52.526;19.672;2023-02-28T07:16:04;102554.41;;;3.19;89.60
61908;BME280;47864;52.526;19.672;2023-02-28T07:18:06;102544.19;;;3.11;90.80
61908;BME280;47864;52.526;19.672;2023-02-28T07:20:08;102551.88;;;3.16;92.25
61908;BME280;47864;52.526;19.672;2023-02-28T07:22:10;102547.38;;;3.66;86.92
61908;BME280;47864;52.526;19.672;2023-02-28T07:24:11;102548.63;;;4.22;85.33
61908;BME280;47864;52.526;19.672;2023-02-28T07:26:15;102415.09;;;3.28;81.87
61908;BME280;47864;52.526;19.672;2023-02-28T07:28:17;102549.34;;;4.48;81.12
61908;BME280;47864;52.526;19.672;2023-02-28T07:30:18;102554.69;;;4.67;79.32
61908;BME280;47864;52.526;19.672;2023-02-28T07:32:20;102532.94;;;3.54;83.54
61908;BME280;47864;52.526;19.672;2023-02-28T07:34:22;102541.06;;;3.25;83.83
61908;BME280;47864;52.526;19.672;2023-02-28T07:36:24;102552.59;;;3.67;79.94
61908;BME280;47864;52.526;19.672;2023-02-28T07:38:26;102542.09;;;4.33;79.64
61908;BME280;47864;52.526;19.672;2023-02-28T07:40:27;102548.94;;;4.57;78.64
61908;BME280;47864;52.526;19.672;2023-02-28T07:42:29;102554.53;;;5.10;74.99
61908;BME280;47864;52.526;19.672;2023-02-28T07:44:30;102533.00;;;5.02;75.27
61908;BME280;47864;52.526;19.672;2023-02-28T07:46:32;102547.69;;;4.86;74.96
61908;BME280;47864;52.526;19.672;2023-02-28T07:48:34;102551.47;;;5.01;75.64
61908;BME280;47864;52.526;19.672;2023-02-28T07:50:36;102550.50;;;4.41;76.86
61908;BME280;47864;52.526;19.672;2023-02-28T07:52:37;102555.22;;;3.89;77.17
61908;BME280;47864;52.526;19.672;2023-02-28T07:54:39;102551.00;;;4.29;77.57
61908;BME280;47864;52.526;19.672;2023-02-28T07:56:41;102542.78;;;3.94;78.36
61908;BME280;47864;52.526;19.672;2023-02-28T07:58:42;102556.47;;;4.02;77.78
61908;BME280;47864;52.526;19.672;2023-02-28T08:00:43;102551.50;;;4.16;77.41
61908;BME280;47864;52.526;19.672;2023-02-28T08:02:46;102524.59;;;3.44;77.08
61908;BME280;47864;52.526;19.672;2023-02-28T08:04:47;102535.44;;;2.87;79.63
61908;BME280;47864;52.526;19.672;2023-02-28T08:06:48;102561.38;;;2.95;80.00
61908;BME280;47864;52.526;19.672;2023-02-28T08:08:50;102537.47;;;3.04;78.57
61908;BME280;47864;52.526;19.672;2023-02-28T08:10:51;102553.19;;;2.79;78.80
61908;BME280;47864;52.526;19.672;2023-02-28T08:12:53;102542.00;;;2.74;80.04
61908;BME280;47864;52.526;19.672;2023-02-28T08:14:54;102534.97;;;3.24;78.48
61908;BME280;47864;52.526;19.672;2023-02-28T08:16:56;102549.59;;;3.30;75.33
61908;BME280;47864;52.526;19.672;2023-02-28T08:18:57;102547.25;;;2.99;76.41
61908;BME280;47864;52.526;19.672;2023-02-28T08:20:59;102540.00;;;3.05;72.09
61908;BME280;47864;52.526;19.672;2023-02-28T08:23:01;102563.72;;;2.78;75.07
61908;BME280;47864;52.526;19.672;2023-02-28T08:25:02;102555.88;;;3.02;76.10
61908;BME280;47864;52.526;19.672;2023-02-28T08:27:04;102559.59;;;3.20;75.19
61908;BME280;47864;52.526;19.672;2023-02-28T08:29:05;102543.97;;;3.40;74.78
61908;BME280;47864;52.526;19.672;2023-02-28T08:31:09;102528.41;;;3.13;74.91
61908;BME280;47864;52.526;19.672;2023-02-28T08:33:11;102547.44;;;3.18;76.43
61908;BME280;47864;52.526;19.672;2023-02-28T08:35:13;102565.59;;;3.47;73.49
61908;BME280;47864;52.526;19.672;2023-02-28T08:37:14;102544.53;;;3.02;72.61
61908;BME280;47864;52.526;19.672;2023-02-28T08:39:16;102568.44;;;3.41;74.62
61908;BME280;47864;52.526;19.672;2023-02-28T08:41:17;102570.44;;;3.34;74.70
61908;BME280;47864;52.526;19.672;2023-02-28T08:43:19;102557.47;;;3.30;77.98
61908;BME280;47864;52.526;19.672;2023-02-28T08:45:20;102560.25;;;3.72;74.29
61908;BME280;47864;52.526;19.672;2023-02-28T08:47:22;102564.59;;;3.73;71.68
61908;BME280;47864;52.526;19.672;2023-02-28T08:49:23;102572.16;;;3.35;72.34
61908;BME280;47864;52.526;19.672;2023-02-28T08:51:25;102557.66;;;3.49;71.03
61908;BME280;47864;52.526;19.672;2023-02-28T08:53:28;102566.63;;;3.88;70.98
61908;BME280;47864;52.526;19.672;2023-02-28T08:55:30;102570.91;;;4.12;70.79
61908;BME280;47864;52.526;19.672;2023-02-28T08:57:32;102544.91;;;4.06;70.54
61908;BME280;47864;52.526;19.672;2023-02-28T08:59:34;102566.41;;;4.16;71.08
61908;BME280;47864;52.526;19.672;2023-02-28T09:01:36;102569.81;;;3.96;69.92
61908;BME280;47864;52.526;19.672;2023-02-28T09:03:38;102426.22;;;3.11;69.55
61908;BME280;47864;52.526;19.672;2023-02-28T09:05:39;102563.16;;;3.88;69.32
61908;BME280;47864;52.526;19.672;2023-02-28T09:07:41;102576.16;;;3.69;67.63
61908;BME280;47864;52.526;19.672;2023-02-28T09:09:43;102579.19;;;3.80;67.95
61908;BME280;47864;52.526;19.672;2023-02-28T09:11:44;102570.00;;;3.70;66.93
61908;BME280;47864;52.526;19.672;2023-02-28T09:13:46;102569.25;;;3.88;68.08
61908;BME280;47864;52.526;19.672;2023-02-28T09:15:47;102561.50;;;4.29;64.04
61908;BME280;47864;52.526;19.672;2023-02-28T09:17:49;102572.28;;;4.44;64.29
61908;BME280;47864;52.526;19.672;2023-02-28T09:19:50;102558.50;;;3.72;62.81
61908;BME280;47864;52.526;19.672;2023-02-28T09:21:52;102580.22;;;3.99;63.99
61908;BME280;47864;52.526;19.672;2023-02-28T09:23:55;102575.97;;;3.73;64.69
61908;BME280;47864;52.526;19.672;2023-02-28T09:25:56;102569.97;;;3.93;66.35
61908;BME280;47864;52.526;19.672;2023-02-28T09:27:58;102574.78;;;3.59;64.33
61908;BME280;47864;52.526;19.672;2023-02-28T09:29:59;102575.00;;;3.29;68.11
61908;BME280;47864;52.526;19.672;2023-02-28T09:32:01;102574.81;;;3.80;66.16
61908;BME280;47864;52.526;19.672;2023-02-28T09:34:04;102575.97;;;3.50;64.67
61908;BME280;47864;52.526;19.672;2023-02-28T09:36:06;102569.44;;;3.62;65.82
61908;BME280;47864;52.526;19.672;2023-02-28T09:38:08;102571.50;;;3.75;64.89
61908;BME280;47864;52.526;19.672;2023-02-28T09:40:11;102570.75;;;3.72;65.46
61908;BME280;47864;52.526;19.672;2023-02-28T09:42:21;102572.91;;;3.14;69.41
61908;BME280;47864;52.526;19.672;2023-02-28T09:44:29;102579.28;;;3.07;69.48
61908;BME280;47864;52.526;19.672;2023-02-28T09:46:37;102580.59;;;2.95;70.64
61908;BME280;47864;52.526;19.672;2023-02-28T09:48:41;102584.69;;;3.27;70.29
61908;BME280;47864;52.526;19.672;2023-02-28T09:51:00;102580.13;;;3.56;67.80
61908;BME280;47864;52.526;19.672;2023-02-28T09:53:43;102555.13;;;3.22;67.63
61908;BME280;47864;52.526;19.672;2023-02-28T09:55:45;102582.19;;;3.48;68.25
61908;BME280;47864;52.526;19.672;2023-02-28T09:57:50;102580.59;;;3.43;67.23
61908;BME280;47864;52.526;19.672;2023-02-28T10:00:15;102556.94;;;3.45;67.88
61908;BME280;47864;52.526;19.672;2023-02-28T10:05:02;102572.38;;;3.29;68.84
61908;BME280;47864;52.526;19.672;2023-02-28T10:07:35;102584.13;;;3.42;68.48
61908;BME280;47864;52.526;19.672;2023-02-28T10:09:38;102584.22;;;3.39;68.79
61908;BME280;47864;52.526;19.672;2023-02-28T10:11:40;102567.63;;;3.39;67.43
61908;BME280;47864;52.526;19.672;2023-02-28T10:14:03;102576.16;;;3.69;64.95
61908;BME280;47864;52.526;19.672;2023-02-28T10:16:11;102576.00;;;3.72;66.57
61908;BME280;47864;52.526;19.672;2023-02-28T10:18:17;102574.50;;;4.11;65.03
61908;BME280;47864;52.526;19.672;2023-02-28T10:20:21;102574.53;;;4.32;65.65
61908;BME280;47864;52.526;19.672;2023-02-28T10:22:31;102576.13;;;4.14;64.63
61908;BME280;47864;52.526;19.672;2023-02-28T10:24:41;102569.94;;;4.15;63.27
61908;BME280;47864;52.526;19.672;2023-02-28T10:26:43;102571.41;;;4.22;62.70
61908;BME280;47864;52.526;19.672;2023-02-28T10:28:46;102561.94;;;4.40;62.27
61908;BME280;47864;52.526;19.672;2023-02-28T10:30:51;102569.59;;;4.02;62.17
61908;BME280;47864;52.526;19.672;2023-02-28T10:32:53;102562.06;;;3.93;61.42
61908;BME280;47864;52.526;19.672;2023-02-28T10:34:59;102571.53;;;3.97;64.38
61908;BME280;47864;52.526;19.672;2023-02-28T10:37:03;102530.22;;;4.02;62.34
61908;BME280;47864;52.526;19.672;2023-02-28T10:41:57;102543.22;;;4.47;63.13
61908;BME280;47864;52.526;19.672;2023-02-28T10:44:20;102537.31;;;4.63;61.49
61908;BME280;47864;52.526;19.672;2023-02-28T10:46:22;102536.34;;;4.85;60.57
61908;BME280;47864;52.526;19.672;2023-02-28T10:48:33;102541.56;;;4.45;63.92
61908;BME280;47864;52.526;19.672;2023-02-28T10:50:51;102525.31;;;3.93;64.81
61908;BME280;47864;52.526;19.672;2023-02-28T10:52:53;102520.06;;;3.48;67.61
61908;BME280;47864;52.526;19.672;2023-02-28T10:55:15;102531.31;;;4.18;63.27
61908;BME280;47864;52.526;19.672;2023-02-28T10:57:20;102522.53;;;4.40;62.50
61908;BME280;47864;52.526;19.672;2023-02-28T10:59:27;102529.22;;;4.47;60.62
61908;BME280;47864;52.526;19.672;2023-02-28T11:01:58;102508.59;;;4.38;61.68
61908;BME280;47864;52.526;19.672;2023-02-28T11:04:00;102518.50;;;4.31;59.97
61908;BME280;47864;52.526;19.672;2023-02-28T11:06:20;102509.88;;;4.07;60.73
61908;BME280;47864;52.526;19.672;2023-02-28T11:08:23;102509.53;;;4.15;59.77
61908;BME280;47864;52.526;19.672;2023-02-28T11:10:28;102506.06;;;4.14;59.45
61908;BME280;47864;52.526;19.672;2023-02-28T11:12:36;102501.72;;;4.13;61.25